Time;durP1;ratioP1;P1;durP2;ratioP2;P2;SDS_P1;SDS_P2;PMS_P1;PMS_P2;Temp;Humidity;BMP_temperature;BMP_pressure;BME280_temperature;BME280_humidity;BME280_pressure;Samples;Min_cycle;Max_cycle;Signal;HPM_P1;HPM_P2
2023/07/11 00:00:06;;;;;;;;;27.75;27.25;;;;;22.81;55.38;101529.94;6157261;23;45477;-77
2023/07/11 00:02:32;;;;;;;;;23.50;23.00;;;;;22.79;55.73;101531.91;6181518;23;45510;-77
2023/07/11 00:04:59;;;;;;;;;32.67;32.00;;;;;22.66;55.83;101517.78;6186229;23;45152;-76
2023/07/11 00:07:25;;;;;;;;;24.25;24.25;;;;;22.66;56.01;101523.19;6187724;23;45590;-77
2023/07/11 00:09:50;;;;;;;;;35.00;32.33;;;;;22.55;55.98;101507.88;6184851;23;45259;-76
2023/07/11 00:12:16;;;;;;;;;21.75;21.75;;;;;22.56;56.25;101516.84;6184941;23;45240;-75
2023/07/11 00:14:42;;;;;;;;;19.00;17.75;;;;;22.45;56.39;101506.97;6185396;23;45540;-76
2023/07/11 00:17:07;;;;;;;;;21.50;21.50;;;;;22.52;56.29;101518.06;6184734;23;45340;-76
2023/07/11 00:19:56;;;;;;;;;29.75;29.50;;;;;22.42;56.37;101509.94;6185271;23;45409;-76
2023/07/11 00:22:24;;;;;;;;;25.00;25.00;;;;;22.45;56.10;101511.50;6183413;23;45199;-75
2023/07/11 00:24:50;;;;;;;;;18.75;18.75;;;;;22.39;58.06;101503.94;6185248;23;45417;-76
2023/07/11 00:27:17;;;;;;;;;18.75;18.75;;;;;22.34;57.23;101509.75;6156235;23;45331;-76
2023/07/11 00:29:43;;;;;;;;;16.25;14.50;;;;;22.35;57.52;101510.59;6184663;23;45293;-75
2023/07/11 00:32:09;;;;;;;;;20.50;18.50;;;;;22.31;58.14;101513.56;6185120;23;45282;-76
2023/07/11 00:34:35;;;;;;;;;19.50;19.00;;;;;22.31;58.36;101521.66;6185448;23;45329;-75
2023/07/11 00:37:01;;;;;;;;;14.00;12.50;;;;;22.25;57.70;101508.66;6183658;23;46510;-77
2023/07/11 00:39:28;;;;;;;;;22.25;20.75;;;;;22.26;58.19;101518.47;6185509;23;45217;-76
2023/07/11 00:41:53;;;;;;;;;20.50;20.50;;;;;22.13;57.82;101493.53;6185334;23;45280;-76
2023/07/11 00:44:19;;;;;;;;;16.25;15.50;;;;;22.17;58.15;101497.69;6183337;23;45352;-75
2023/07/11 00:46:44;;;;;;;;;18.75;18.75;;;;;22.14;58.65;101497.97;6184601;23;46236;-76
2023/07/11 00:49:13;;;;;;;;;20.50;19.75;;;;;22.19;58.21;101505.63;6185822;23;45280;-76
2023/07/11 00:51:46;;;;;;;;;15.75;15.25;;;;;22.01;58.16;101474.88;6185083;23;45258;-76
2023/07/11 00:54:16;;;;;;;;;25.00;23.25;;;;;22.10;57.74;101492.94;6185507;23;45286;-76
2023/07/11 00:56:45;;;;;;;;;19.25;19.25;;;;;22.09;59.18;101496.63;6184032;23;45552;-76
2023/07/11 00:59:11;;;;;;;;;18.75;17.00;;;;;22.13;58.26;101495.38;6157248;23;45310;-76
2023/07/11 01:01:37;;;;;;;;;24.25;22.25;;;;;22.21;58.56;101507.25;6184604;23;45801;-75
2023/07/11 01:04:05;;;;;;;;;21.33;21.33;;;;;22.21;58.07;101509.06;6133383;23;45450;-75
2023/07/11 01:06:31;;;;;;;;;20.00;19.00;;;;;22.13;59.04;101498.94;6183743;23;46488;-75
2023/07/11 01:08:59;;;;;;;;;21.75;20.25;;;;;22.23;58.80;101507.94;6185105;23;45281;-75
2023/07/11 01:11:27;;;;;;;;;16.25;16.25;;;;;22.25;59.38;101510.53;6184080;23;45247;-76
2023/07/11 01:13:53;;;;;;;;;34.33;32.67;;;;;22.14;57.29;101489.00;6184246;23;45425;-75
2023/07/11 01:16:20;;;;;;;;;24.75;24.25;;;;;22.24;58.86;101498.03;6183661;23;45314;-75
2023/07/11 01:18:45;;;;;;;;;19.25;18.75;;;;;22.18;59.30;101494.03;6185302;23;45311;-76
2023/07/11 01:21:21;;;;;;;;;18.00;18.00;;;;;22.22;59.76;101508.94;6182427;23;45632;-76
2023/07/11 01:23:47;;;;;;;;;22.75;22.75;;;;;22.20;60.35;101497.44;6185691;23;45223;-76
2023/07/11 01:26:12;;;;;;;;;20.00;19.75;;;;;22.06;60.56;101473.50;6183336;23;45286;-76
2023/07/11 01:28:39;;;;;;;;;16.75;16.75;;;;;22.08;60.99;101485.00;6185306;23;45547;-76
2023/07/11 01:31:05;;;;;;;;;20.50;18.25;;;;;22.01;61.35;101483.81;6184904;23;45206;-76
2023/07/11 01:33:31;;;;;;;;;21.50;19.75;;;;;21.98;61.01;101477.81;6185220;23;45319;-77
2023/07/11 01:35:56;;;;;;;;;12.25;12.25;;;;;22.01;61.57;101493.72;6181900;23;47083;-76
2023/07/11 01:38:24;;;;;;;;;13.50;12.00;;;;;21.93;61.68;101485.41;6184314;23;45261;-76
2023/07/11 01:40:49;;;;;;;;;13.25;12.75;;;;;21.89;61.89;101484.81;6183821;23;45238;-76
2023/07/11 01:43:17;;;;;;;;;37.67;34.00;;;;;21.91;62.48;101484.69;6184960;23;45496;-76
2023/07/11 01:45:43;;;;;;;;;11.50;11.50;;;;;21.82;62.46;101470.97;6184170;23;45243;-76
2023/07/11 01:48:08;;;;;;;;;11.75;11.75;;;;;21.84;63.08;101481.63;6157386;23;45572;-77
2023/07/11 01:50:33;;;;;;;;;12.75;12.75;;;;;21.66;63.27;101462.47;6185508;23;45645;-76
2023/07/11 01:52:59;;;;;;;;;11.00;11.00;;;;;21.76;63.13;101478.72;6184659;23;45378;-76
2023/07/11 01:55:25;;;;;;;;;12.50;10.75;;;;;21.60;63.44;101456.72;6184740;23;45341;-77
2023/07/11 01:57:50;;;;;;;;;9.75;9.75;;;;;21.66;64.31;101469.72;6183383;23;45179;-76
2023/07/11 02:00:16;;;;;;;;;10.25;9.25;;;;;21.64;64.05;101475.22;6182478;23;45323;-76
2023/07/11 02:02:41;;;;;;;;;8.75;8.25;;;;;21.59;65.12;101469.38;6183737;23;45327;-76
2023/07/11 02:05:07;;;;;;;;;7.25;7.25;;;;;21.52;64.68;101470.00;6184191;23;45517;-76
2023/07/11 02:07:32;;;;;;;;;9.00;9.00;;;;;21.41;64.96;101459.22;6183823;23;45681;-76
2023/07/11 02:09:57;;;;;;;;;12.50;12.50;;;;;21.41;65.08;101464.63;6184147;23;45318;-76
2023/07/11 02:12:23;;;;;;;;;10.50;10.50;;;;;21.41;65.40;101459.22;6183899;23;48201;-77
2023/07/11 02:14:48;;;;;;;;;7.50;7.50;;;;;21.36;66.11;101462.31;6183617;23;46429;-76
2023/07/11 02:17:16;;;;;;;;;8.50;8.50;;;;;21.33;66.30;101464.41;6183812;23;48348;-76
2023/07/11 02:19:44;;;;;;;;;10.25;10.25;;;;;21.33;67.00;101462.56;6182866;23;45144;-76
2023/07/11 02:22:10;;;;;;;;;11.00;10.00;;;;;21.26;66.57;101454.16;6181680;23;45426;-76
2023/07/11 02:24:35;;;;;;;;;20.50;20.50;;;;;21.23;67.63;101451.72;6184490;23;45489;-76
2023/07/11 02:27:00;;;;;;;;;13.25;13.25;;;;;21.16;68.33;101439.72;6182915;23;49795;-76
2023/07/11 02:29:26;;;;;;;;;11.75;11.00;;;;;21.16;68.73;101442.41;6184635;23;45143;-76
2023/07/11 02:31:51;;;;;;;;;22.50;22.50;;;;;21.15;68.89;101448.78;6157098;23;45292;-75
2023/07/11 02:34:17;;;;;;;;;25.75;25.75;;;;;21.10;69.40;101440.22;6185403;23;45987;-76
2023/07/11 02:36:42;;;;;;;;;16.50;16.50;;;;;21.07;69.42;101436.91;6184409;23;45290;-75
2023/07/11 02:39:07;;;;;;;;;27.75;27.75;;;;;20.93;69.73;101423.69;6184330;23;45285;-76
2023/07/11 02:41:33;;;;;;;;;17.00;17.00;;;;;21.00;69.90;101431.16;6185441;23;45285;-76
2023/07/11 02:43:58;;;;;;;;;16.50;16.25;;;;;20.96;69.84;101432.38;6186040;23;45481;-76
2023/07/11 02:46:24;;;;;;;;;28.50;28.00;;;;;20.95;70.57;101429.78;6185020;23;45374;-76
2023/07/11 02:48:50;;;;;;;;;25.00;23.75;;;;;20.79;70.82;101422.97;6189674;23;45259;-75
2023/07/11 02:51:16;;;;;;;;;17.25;16.25;;;;;20.89;71.46;101433.84;6188935;23;45402;-75
2023/07/11 02:53:41;;;;;;;;;25.75;25.50;;;;;20.87;71.87;101421.50;6189798;23;45164;-75
2023/07/11 02:56:06;;;;;;;;;12.75;12.75;;;;;20.84;72.02;101432.50;6187035;23;45507;-75
2023/07/11 02:58:32;;;;;;;;;24.25;24.25;;;;;20.79;72.32;101428.34;6189528;23;45319;-75
2023/07/11 03:01:00;;;;;;;;;24.25;24.25;;;;;20.72;72.37;101413.69;6188854;23;45140;-75
2023/07/11 03:03:25;;;;;;;;;18.50;18.50;;;;;20.60;71.92;101395.00;6187709;23;45320;-75
2023/07/11 03:05:52;;;;;;;;;27.75;27.75;;;;;20.71;72.50;101420.03;6187119;23;45183;-75
2023/07/11 03:08:18;;;;;;;;;14.75;14.75;;;;;20.72;72.55;101432.50;6183936;23;45328;-75
2023/07/11 03:10:43;;;;;;;;;25.50;24.00;;;;;20.67;72.88;101423.09;6184593;23;45421;-76
2023/07/11 03:13:09;;;;;;;;;29.00;26.75;;;;;20.65;72.81;101416.97;6184711;23;45384;-75
2023/07/11 03:15:36;;;;;;;;;27.75;27.50;;;;;20.61;74.06;101416.38;6185439;23;45377;-75
2023/07/11 03:18:02;;;;;;;;;23.75;23.00;;;;;20.56;73.81;101415.03;6185206;23;45376;-77
2023/07/11 03:20:28;;;;;;;;;26.50;23.25;;;;;20.50;74.20;101402.94;6183535;23;45735;-76
2023/07/11 03:23:24;;;;;;;;;12.00;12.00;;;;;20.55;74.15;101407.97;6185691;23;45282;-76
2023/07/11 03:25:50;;;;;;;;;20.50;20.50;;;;;20.52;74.87;101411.72;6185225;23;45286;-75
2023/07/11 03:28:15;;;;;;;;;43.50;38.00;;;;;20.49;74.69;101409.28;6158598;23;45340;-76
2023/07/11 03:30:42;;;;;;;;;21.75;21.75;;;;;20.43;74.92;101399.00;6184894;23;45360;-76
2023/07/11 03:33:07;;;;;;;;;20.75;17.50;;;;;20.44;75.30;101399.88;6185295;23;46550;-75
2023/07/11 03:35:34;;;;;;;;;27.00;22.25;;;;;20.30;75.02;101384.84;6183750;23;45215;-76
2023/07/11 03:37:59;;;;;;;;;41.50;37.25;;;;;20.37;76.11;101398.63;6183233;23;45342;-75
2023/07/11 03:40:25;;;;;;;;;11.50;10.50;;;;;20.27;76.04;101380.56;6185751;23;45366;-75
2023/07/11 03:42:50;;;;;;;;;23.50;21.75;;;;;20.36;75.49;101391.53;6183169;23;46471;-75
2023/07/11 03:45:15;;;;;;;;;29.50;26.75;;;;;20.26;76.49;101378.84;6185013;23;50035;-76
2023/07/11 03:47:41;;;;;;;;;27.25;24.75;;;;;20.30;76.97;101381.28;6185274;23;45274;-76
2023/07/11 03:50:06;;;;;;;;;47.00;40.00;;;;;20.30;76.98;101381.28;6183731;23;45417;-76
2023/07/11 03:52:32;;;;;;;;;27.00;24.25;;;;;20.25;77.33;101382.47;6185405;23;45235;-76
2023/07/11 03:54:57;;;;;;;;;41.50;37.50;;;;;20.17;77.47;101374.16;6183364;23;45853;-76
2023/07/11 03:57:22;;;;;;;;;20.00;19.00;;;;;20.24;77.35;101385.28;6184685;23;45291;-76
2023/07/11 03:59:48;;;;;;;;;39.25;35.25;;;;;20.20;77.88;101376.59;6157758;23;45659;-76
2023/07/11 04:02:14;;;;;;;;;40.00;35.75;;;;;20.17;78.07;101378.69;6185550;23;46112;-75
2023/07/11 04:04:39;;;;;;;;;42.25;37.50;;;;;20.20;77.82;101387.34;6185453;23;45395;-76
2023/07/11 04:07:05;;;;;;;;;24.50;21.75;;;;;20.16;77.95;101380.50;6185105;23;45201;-75
2023/07/11 04:09:30;;;;;;;;;18.75;16.75;;;;;20.18;78.71;101381.25;6185758;23;45468;-76
2023/07/11 04:11:56;;;;;;;;;42.25;37.50;;;;;20.04;78.59;101359.97;6184921;23;45944;-76
2023/07/11 04:14:22;;;;;;;;;37.75;35.25;;;;;20.15;79.34;101370.75;6185117;23;45303;-76
2023/07/11 04:16:47;;;;;;;;;16.25;14.25;;;;;20.07;80.33;101367.78;6184792;23;45341;-76
2023/07/11 04:19:12;;;;;;;;;21.75;20.00;;;;;20.14;79.07;101374.41;6185520;23;45223;-76
2023/07/11 04:21:38;;;;;;;;;19.75;19.50;;;;;20.10;80.09;101366.69;6184085;23;45731;-76
2023/07/11 04:24:03;;;;;;;;;20.00;18.75;;;;;20.00;80.34;101349.59;6185471;23;45285;-75
2023/07/11 04:26:29;;;;;;;;;39.75;34.00;;;;;20.12;80.40;101376.34;6184690;23;45458;-76
2023/07/11 04:28:54;;;;;;;;;19.50;18.50;;;;;20.15;80.16;101381.50;6184559;23;45274;-76
2023/07/11 04:31:20;;;;;;;;;38.75;35.00;;;;;20.13;79.34;101371.81;6184831;23;45289;-76
2023/07/11 04:33:46;;;;;;;;;21.75;21.75;;;;;20.08;79.93;101366.81;6185282;23;45381;-76
2023/07/11 04:36:14;;;;;;;;;18.00;18.00;;;;;20.06;80.49;101357.16;6184143;23;45187;-76
2023/07/11 04:38:39;;;;;;;;;35.25;31.50;;;;;20.14;81.34;101368.16;6185145;23;45151;-77
2023/07/11 04:41:06;;;;;;;;;34.25;31.75;;;;;20.17;80.63;101371.47;6182171;23;46545;-76
2023/07/11 04:43:33;;;;;;;;;27.75;25.75;;;;;20.19;81.02;101371.34;6185315;23;45251;-76
2023/07/11 04:46:00;;;;;;;;;35.00;32.75;;;;;20.20;82.21;101368.53;6183897;23;45322;-75
2023/07/11 04:48:25;;;;;;;;;32.00;30.50;;;;;20.22;82.14;101369.28;6184984;23;45508;-76
2023/07/11 04:51:05;;;;;;;;;19.25;18.25;;;;;20.25;81.61;101379.78;6184512;23;45451;-75
2023/07/11 04:53:32;;;;;;;;;15.25;13.75;;;;;20.30;82.39;101381.28;6182561;23;45332;-76
2023/07/11 04:55:59;;;;;;;;;19.50;17.00;;;;;20.30;82.49;101376.78;6183639;23;45398;-76
2023/07/11 04:58:26;;;;;;;;;21.50;20.25;;;;;20.43;79.94;101388.25;6183367;23;45540;-75
2023/07/11 05:00:51;;;;;;;;;18.00;17.75;;;;;20.42;80.42;101372.28;6183034;23;47367;-75
2023/07/11 05:03:17;;;;;;;;;23.00;22.00;;;;;20.60;81.32;101384.25;6184865;23;45335;-75
2023/07/11 05:05:42;;;;;;;;;21.50;20.25;;;;;20.64;82.08;101388.41;6185405;23;45152;-76
2023/07/11 05:08:08;;;;;;;;;24.25;22.25;;;;;20.69;80.10;101372.75;6185280;23;45336;-75
2023/07/11 05:10:33;;;;;;;;;39.00;34.25;;;;;20.82;76.35;101386.91;6185181;23;46088;-75
2023/07/11 05:12:58;;;;;;;;;20.25;20.25;;;;;20.91;76.91;101379.97;6185277;23;45163;-76
2023/07/11 05:15:24;;;;;;;;;34.25;32.25;;;;;20.98;78.53;101378.44;6184300;23;45199;-75
2023/07/11 05:17:49;;;;;;;;;36.50;33.25;;;;;21.02;77.81;101383.47;6185347;23;45242;-75
2023/07/11 05:20:14;;;;;;;;;20.75;19.50;;;;;21.02;78.74;101363.78;6185022;23;45435;-75
2023/07/11 05:22:40;;;;;;;;;18.75;18.75;;;;;21.20;77.64;101376.59;6186044;23;45554;-76
2023/07/11 05:25:06;;;;;;;;;11.25;11.00;;;;;21.24;78.21;101371.81;6187941;23;45672;-75
2023/07/11 05:27:32;;;;;;;;;22.75;22.00;;;;;21.33;76.75;101371.09;6188148;23;45343;-75
2023/07/11 05:29:57;;;;;;;;;19.50;18.00;;;;;21.47;70.72;101372.59;6161710;23;50792;-75
2023/07/11 05:32:22;;;;;;;;;29.25;27.75;;;;;21.57;72.23;101377.09;6187868;23;45282;-76
2023/07/11 05:34:48;;;;;;;;;11.75;11.50;;;;;21.60;73.34;101363.38;6187118;23;45375;-75
2023/07/11 05:37:13;;;;;;;;;10.25;10.00;;;;;21.74;73.49;101365.75;6157291;23;45230;-75
2023/07/11 05:39:39;;;;;;;;;16.00;16.00;;;;;21.82;70.88;101368.63;6183039;23;47517;-75
2023/07/11 05:42:04;;;;;;;;;17.00;17.00;;;;;21.90;70.23;101364.47;6183152;23;45383;-76
2023/07/11 05:44:30;;;;;;;;;17.00;16.50;;;;;22.05;68.85;101366.72;6185393;23;45326;-75
2023/07/11 05:46:55;;;;;;;;;17.75;17.75;;;;;22.15;70.89;101364.91;6184568;23;45222;-76
2023/07/11 05:49:21;;;;;;;;;21.75;21.75;;;;;22.22;66.23;101359.84;6184261;23;45298;-75
2023/07/11 05:51:46;;;;;;;;;22.75;22.25;;;;;22.23;66.81;101346.25;6183819;23;45318;-75
2023/07/11 05:54:12;;;;;;;;;17.25;17.25;;;;;22.32;67.07;101348.13;6183459;23;45515;-75
2023/07/11 05:56:37;;;;;;;;;30.25;28.50;;;;;22.43;64.88;101351.75;6184726;23;45333;-75
2023/07/11 05:59:02;;;;;;;;;15.25;15.25;;;;;22.58;68.97;101362.00;6184891;23;47373;-76
2023/07/11 06:01:30;;;;;;;;;18.00;16.50;;;;;22.67;63.73;101355.88;6156355;23;45357;-75
2023/07/11 06:04:10;;;;;;;;;13.50;13.50;;;;;22.63;67.61;101334.66;6181845;23;45269;-76
2023/07/11 06:06:41;;;;;;;;;14.50;12.75;;;;;22.85;67.69;101356.03;6182068;23;45398;-75
2023/07/11 06:09:08;;;;;;;;;22.00;22.00;;;;;22.89;65.40;101345.84;6185516;23;45340;-76
2023/07/11 06:11:33;;;;;;;;;16.50;15.75;;;;;23.00;63.17;101354.69;6185690;23;45343;-76
2023/07/11 06:13:59;;;;;;;;;28.25;27.75;;;;;23.03;62.01;101349.00;6186169;23;45468;-76
2023/07/11 06:16:24;;;;;;;;;20.00;18.25;;;;;23.20;64.86;101345.59;6184084;23;53707;-77
2023/07/11 06:18:52;;;;;;;;;28.50;28.50;;;;;23.26;63.47;101345.06;6185376;23;45349;-77
2023/07/11 06:21:17;;;;;;;;;26.00;24.00;;;;;23.30;65.40;101338.38;6184634;23;45249;-77
2023/07/11 06:23:44;;;;;;;;;15.75;14.50;;;;;23.27;64.00;101325.16;6185907;23;46043;-77
2023/07/11 06:26:10;;;;;;;;;44.25;38.75;;;;;23.53;61.28;101346.22;6185761;23;45140;-77
2023/07/11 06:28:36;;;;;;;;;12.25;12.25;;;;;23.57;63.06;101331.44;6158053;23;46413;-77
2023/07/11 06:31:01;;;;;;;;;27.75;27.50;;;;;23.69;62.26;101344.66;6185954;23;45783;-77
2023/07/11 06:33:28;;;;;;;;;24.33;22.33;;;;;23.78;62.48;101348.34;6183973;23;45428;-77
2023/07/11 06:35:54;;;;;;;;;41.25;36.75;;;;;23.77;60.34;101331.28;6183501;23;45338;-77
2023/07/11 06:38:20;;;;;;;;;36.75;32.50;;;;;23.95;61.39;101346.75;6157523;23;45433;-77
2023/07/11 06:40:49;;;;;;;;;48.33;41.67;;;;;24.02;59.43;101340.63;6185012;23;45525;-77
2023/07/11 06:43:15;;;;;;;;;45.25;39.25;;;;;24.04;58.99;101325.13;6185911;23;45243;-77
2023/07/11 06:45:41;;;;;;;;;43.00;37.67;;;;;24.25;58.39;101335.75;6186343;23;45419;-77
2023/07/11 06:48:06;;;;;;;;;50.67;43.00;;;;;24.28;59.17;101327.34;6183431;23;45489;-77
2023/07/11 06:50:32;;;;;;;;;46.00;39.33;;;;;24.44;58.20;101340.25;6186328;23;45199;-77
2023/07/11 06:52:57;;;;;;;;;32.33;29.33;;;;;24.57;57.53;101336.22;6158136;23;45451;-77
2023/07/11 06:55:22;;;;;;;;;43.50;38.50;;;;;24.64;57.83;101337.28;6185430;23;45286;-77
2023/07/11 06:57:48;;;;;;;;;33.33;30.33;;;;;24.77;57.21;101331.56;6183444;23;46967;-77
2023/07/11 07:00:14;;;;;;;;;164.00;159.33;;;;;24.87;55.07;101318.81;6185848;23;45324;-77
2023/07/11 07:02:40;;;;;;;;;160.67;157.00;;;;;24.96;54.79;101319.78;6185411;23;45290;-77
2023/07/11 07:05:05;;;;;;;;;50.67;42.67;;;;;25.05;54.57;101321.56;6185800;23;45579;-77
2023/07/11 07:07:31;;;;;;;;;52.00;43.00;;;;;25.06;54.65;101315.16;6185839;23;46730;-77
2023/07/11 07:09:58;;;;;;;;;168.00;162.33;;;;;25.26;53.45;101335.69;6159148;23;45283;-77
2023/07/11 07:12:24;;;;;;;;;46.00;36.67;;;;;25.31;53.47;101323.38;6185378;23;45234;-77
2023/07/11 07:14:49;;;;;;;;;145.00;138.00;;;;;25.30;52.88;101308.13;6185976;23;45402;-77
2023/07/11 07:17:15;;;;;;;;;22.75;22.50;;;;;25.55;53.35;101325.50;6185236;23;53181;-77
2023/07/11 07:19:41;;;;;;;;;9.67;6.67;;;;;25.58;53.98;101313.47;6183338;23;45901;-77
2023/07/11 07:22:06;;;;;;;;;30.00;29.75;;;;;25.74;52.00;101310.91;6183098;23;45345;-77
2023/07/11 07:24:32;;;;;;;;;43.25;36.75;;;;;25.88;52.68;101313.06;6185649;23;45177;-77
2023/07/11 07:26:57;;;;;;;;;36.00;33.67;;;;;26.00;51.67;101317.19;6185338;23;45957;-77
2023/07/11 07:29:24;;;;;;;;;63.00;52.50;;;;;26.10;52.64;101315.22;6186378;23;45231;-77
2023/07/11 07:31:49;;;;;;;;;65.40;52.60;;;;;26.20;51.44;101313.28;6185279;23;45227;-77
2023/07/11 07:34:15;;;;;;;;;63.50;51.75;;;;;26.20;52.09;101297.00;6185494;23;46101;-77
2023/07/11 07:36:40;;;;;;;;;68.50;57.75;;;;;26.44;50.71;101309.00;6185473;23;46197;-77
2023/07/11 07:39:05;;;;;;;;;70.00;60.00;;;;;26.56;50.38;101305.84;6186464;23;45539;-77
2023/07/11 07:41:31;;;;;;;;;65.00;52.00;;;;;26.62;50.95;101304.31;6185611;23;45353;-77
2023/07/11 07:43:56;;;;;;;;;67.50;55.75;;;;;26.67;50.59;101289.22;6189486;23;45551;-77
2023/07/11 07:46:22;;;;;;;;;56.33;47.00;;;;;26.79;52.11;101296.09;6162411;23;46782;-76
2023/07/11 07:48:47;;;;;;;;;71.50;61.25;;;;;26.90;49.51;101286.78;6189368;23;45261;-77
2023/07/11 07:51:15;;;;;;;;;69.75;59.50;;;;;27.04;50.16;101297.00;6190042;23;45384;-77
2023/07/11 07:53:41;;;;;;;;;77.25;66.75;;;;;26.98;48.76;101270.53;6189478;23;45170;-77
2023/07/11 07:56:12;;;;;;;;;86.00;77.00;;;;;27.18;48.61;101295.50;6188592;23;45363;-77
2023/07/11 07:58:39;;;;;;;;;72.00;61.50;;;;;27.24;50.07;101282.09;6186449;23;45230;-77
2023/07/11 08:01:05;;;;;;;;;178.80;101.60;;;;;27.31;47.98;101280.41;6187956;23;45287;-77
2023/07/11 08:03:31;;;;;;;;;284.80;96.60;;;;;27.44;47.90;101288.09;6187028;23;45220;-77
2023/07/11 08:05:57;;;;;;;;;161.20;99.60;;;;;27.51;48.68;101277.41;6185673;23;45972;-76
2023/07/11 08:08:23;;;;;;;;;321.50;104.25;;;;;27.57;47.33;101260.41;6183963;23;45319;-77
2023/07/11 08:10:48;;;;;;;;;127.50;81.00;;;;;27.76;48.76;101277.19;6185816;23;45243;-76
2023/07/11 08:13:14;;;;;;;;;126.00;84.50;;;;;27.95;47.90;101286.84;6183808;23;45463;-77
2023/07/11 08:15:42;;;;;;;;;252.00;105.00;;;;;28.02;47.76;101265.25;6185221;23;45561;-77
2023/07/11 08:18:07;;;;;;;;;300.80;101.80;;;;;28.17;47.73;101264.41;6185454;23;45333;-77
2023/07/11 08:20:33;;;;;;;;;116.25;83.25;;;;;28.18;47.81;101249.75;6185501;23;45907;-77
2023/07/11 08:22:58;;;;;;;;;141.25;24.75;;;;;28.24;46.39;101243.59;6185507;23;45240;-77
2023/07/11 08:25:23;;;;;;;;;286.25;91.50;;;;;28.47;47.56;101251.03;6185174;23;45928;-76
2023/07/11 08:27:49;;;;;;;;;88.00;76.75;;;;;28.59;48.24;101245.00;6184432;23;45298;-77
2023/07/11 08:30:14;;;;;;;;;272.67;56.67;;;;;28.79;47.26;101243.56;6185928;23;45353;-76
2023/07/11 08:32:39;;;;;;;;;65.33;5.67;;;;;28.73;45.98;101219.75;6185268;23;45279;-77
2023/07/11 08:35:06;;;;;;;;;3166.33;3132.67;;;;;29.01;46.84;101230.13;6183390;23;48065;-77
2023/07/11 08:37:33;;;;;;;;;3141.40;3115.20;;;;;29.19;46.26;101236.94;6182118;23;45225;-77
2023/07/11 08:39:59;;;;;;;;;3464.50;3464.50;;;;;29.25;44.69;101235.41;6185922;23;45279;-77
2023/07/11 08:42:31;;;;;;;;;3466.00;3466.00;;;;;29.28;45.53;101221.44;6183142;23;45638;-77
2023/07/11 08:45:11;;;;;;;;;3456.00;3456.00;;;;;29.52;45.65;101226.63;6182802;23;48020;-77
2023/07/11 08:47:43;;;;;;;;;3445.50;3445.50;;;;;29.63;44.38;101231.66;6182728;23;45292;-77
2023/07/11 08:50:21;;;;;;;;;3437.40;3437.40;;;;;29.75;45.16;101227.44;6185696;23;45446;-77
2023/07/11 08:52:53;;;;;;;;;3447.25;3447.25;;;;;29.73;44.92;101210.41;6158569;23;45278;-77
2023/07/11 08:55:28;;;;;;;;;3409.00;3409.00;;;;;29.88;44.15;101230.38;6185255;23;45721;-77
2023/07/11 08:58:11;;;;;;;;;3448.75;3448.75;;;;;30.00;45.01;101216.28;6182609;23;45415;-77
2023/07/11 09:00:39;;;;;;;;;3437.75;3437.75;;;;;30.12;43.66;101215.63;6158499;23;45276;-77
2023/07/11 09:03:06;;;;;;;;;3421.50;3421.50;;;;;30.32;45.52;101211.28;6182897;23;45273;-77
2023/07/11 09:05:52;;;;;;;;;3454.00;3454.00;;;;;30.39;43.11;101216.81;6185319;23;45306;-77
2023/07/11 09:08:19;;;;;;;;;3413.20;3413.20;;;;;30.45;43.24;101200.56;6185080;23;45388;-77
2023/07/11 09:11:09;;;;;;;;;3453.50;3453.50;;;;;30.63;43.57;101199.28;6185414;23;45265;-77
2023/07/11 09:13:43;;;;;;;;;3434.50;3434.50;;;;;30.84;44.50;101197.41;6185394;23;45289;-77
2023/07/11 09:16:33;;;;;;;;;3429.25;3429.25;;;;;30.90;42.23;101193.91;6184064;23;46726;-77
2023/07/11 09:19:13;;;;;;;;;3423.50;3423.50;;;;;30.97;43.02;101194.00;6185541;23;45211;-77
2023/07/11 09:21:52;;;;;;;;;3445.00;3445.00;;;;;31.04;42.99;101192.19;6183087;23;45397;-77
2023/07/11 09:24:33;;;;;;;;;3414.25;3414.25;;;;;31.13;44.31;101185.53;6184050;23;45480;-77
2023/07/11 09:27:21;;;;;;;;;3429.25;3429.25;;;;;31.13;42.07;101168.28;6184068;23;45528;-78
2023/07/11 09:29:51;;;;;;;;;3436.75;3436.75;;;;;31.25;41.56;101173.00;6184785;23;45276;-77
2023/07/11 09:32:18;;;;;;;;;3414.20;3414.20;;;;;31.27;41.17;101167.34;6184368;23;45361;-77
2023/07/11 09:34:47;;;;;;;;;3415.75;3415.75;;;;;31.42;41.95;101189.97;6184150;23;45239;-77
2023/07/11 09:37:34;;;;;;;;;3434.00;3434.00;;;;;31.53;41.73;101188.63;6184401;23;45533;-77
2023/07/11 09:39:59;;;;;;;;;3421.00;3421.00;;;;;31.60;40.98;101181.31;6157685;23;45618;-77
2023/07/11 09:42:48;;;;;;;;;3432.25;3432.25;;;;;31.61;42.14;101172.06;6184358;23;45244;-77
2023/07/11 09:45:17;;;;;;;;;3425.50;3425.50;;;;;31.67;41.50;101168.53;6182945;23;46289;-77
2023/07/11 09:47:50;;;;;;;;;3452.25;3452.25;;;;;31.82;42.16;101164.63;6184644;23;45467;-77
2023/07/11 09:50:30;;;;;;;;;3431.25;3431.25;;;;;31.87;40.25;101161.28;6184219;23;45391;-77
2023/07/11 09:53:00;;;;;;;;;3427.00;3427.00;;;;;31.93;40.58;101157.72;6182874;23;45195;-77
2023/07/11 09:55:34;;;;;;;;;3434.50;3434.50;;;;;31.97;40.11;101142.56;6157737;23;45328;-78
2023/07/11 09:58:02;;;;;;;;;3404.20;3404.20;;;;;32.07;39.24;101150.47;6182189;23;45320;-77
2023/07/11 10:00:28;;;;;;;;;3445.50;3445.50;;;;;31.99;40.20;101138.63;6157586;23;45794;-77
2023/07/11 10:02:59;;;;;;;;;3428.67;3428.67;;;;;32.17;39.52;101153.66;6157798;23;45410;-78
2023/07/11 10:05:25;;;;;;;;;3436.00;3436.00;;;;;32.21;39.44;101146.72;6182401;23;45370;-77
2023/07/11 10:08:13;;;;;;;;;3436.00;3436.00;;;;;32.31;39.38;101142.53;6184918;23;45375;-78
2023/07/11 10:10:51;;;;;;;;;3414.60;3414.60;;;;;32.44;39.20;101133.53;6184812;23;45435;-77
2023/07/11 10:13:19;;;;;;;;;3433.67;3433.67;;;;;32.47;38.34;101149.53;6185103;23;45435;-77
2023/07/11 10:15:52;;;;;;;;;3297.67;3287.33;;;;;32.44;37.58;101131.63;6186063;23;45416;-78
2023/07/11 10:18:20;;;;;;;;;3447.50;3447.50;;;;;32.52;37.98;101133.34;6185196;23;45491;-78
2023/07/11 10:20:49;;;;;;;;;3448.00;3448.00;;;;;32.60;38.67;101121.38;6186713;23;45411;-78
2023/07/11 10:23:24;;;;;;;;;3399.00;3399.00;;;;;32.71;38.57;101116.13;6187604;23;45436;-78
2023/07/11 10:26:14;;;;;;;;;3301.60;3297.60;;;;;32.64;38.38;101092.50;6187980;23;45504;-78
2023/07/11 10:28:45;;;;;;;;;3393.75;3393.75;;;;;32.77;37.00;101109.81;6188329;23;45322;-77
2023/07/11 10:31:13;;;;;;;;;3372.20;3372.20;;;;;32.75;36.68;101109.19;6187573;23;45397;-77
2023/07/11 10:34:02;;;;;;;;;3396.00;3396.00;;;;;32.68;39.46;101105.59;6186822;23;45540;-78
2023/07/11 10:36:46;;;;;;;;;3390.00;3390.00;;;;;32.69;37.55;101073.56;6187476;23;45213;-78
2023/07/11 10:39:16;;;;;;;;;3408.33;3408.33;;;;;32.97;37.87;101099.69;6181648;23;45491;-78
2023/07/11 10:42:06;;;;;;;;;3388.60;3388.60;;;;;33.03;37.72;101098.00;6156805;23;45453;-78
2023/07/11 10:44:43;;;;;;;;;3388.75;3388.75;;;;;33.21;37.84;101105.63;6183797;23;45259;-77
2023/07/11 10:47:09;;;;;;;;;3440.00;3440.00;;;;;33.33;38.26;101092.94;6184569;23;45295;-78
2023/07/11 10:49:41;;;;;;;;;3458.75;3458.75;;;;;33.47;36.58;101091.88;6184563;23;46276;-78
2023/07/11 10:52:25;;;;;;;;;3409.80;3409.80;;;;;33.57;36.74;101092.25;6182642;23;45254;-78
2023/07/11 10:55:09;;;;;;;;;3385.60;3385.60;;;;;33.69;36.41;101079.59;6185189;23;45353;-78
2023/07/11 10:57:50;;;;;;;;;3411.40;3411.40;;;;;33.78;37.27;101081.03;6185057;23;45275;-78
2023/07/11 11:00:22;;;;;;;;;3340.00;3340.00;;;;;33.89;35.87;101069.38;6186051;23;46060;-78
2023/07/11 11:02:50;;;;;;;;;3342.60;3342.00;;;;;33.98;35.87;101072.69;6184868;23;45396;-79
2023/07/11 11:05:53;;;;;;;;;3409.75;3409.75;;;;;34.04;37.27;101060.84;6183842;23;45229;-79